sensor_id;sensor_type;location;lat;lon;timestamp;pressure;altitude;pressure_sealevel;temperature;humidity
29839;BME280;18669;53.356;-1.464;2023-01-30T00:02:18;100845.03;;;7.71;100.00
29839;BME280;18669;53.356;-1.464;2023-01-30T00:04:44;100835.47;;;7.66;100.00
29839;BME280;18669;53.356;-1.464;2023-01-30T00:07:11;100842.50;;;7.51;100.00
29839;BME280;18669;53.356;-1.464;2023-01-30T00:09:42;100839.03;;;7.46;100.00
29839;BME280;18669;53.356;-1.464;2023-01-30T00:12:09;100848.66;;;7.42;100.00
29839;BME280;18669;53.356;-1.464;2023-01-30T00:14:35;100839.09;;;7.37;100.00
29839;BME280;18669;53.356;-1.464;2023-01-30T00:17:01;100849.56;;;7.37;100.00
29839;BME280;18669;53.356;-1.464;2023-01-30T00:19:27;100851.31;;;7.35;100.00
29839;BME280;18669;53.356;-1.464;2023-01-30T00:21:53;100853.03;;;7.34;100.00
29839;BME280;18669;53.356;-1.464;2023-01-30T00:24:19;100846.97;;;7.30;100.00
29839;BME280;18669;53.356;-1.464;2023-01-30T00:26:46;100846.94;;;7.29;100.00
29839;BME280;18669;53.356;-1.464;2023-01-30T00:29:11;100844.28;;;7.41;100.00
29839;BME280;18669;53.356;-1.464;2023-01-30T00:31:38;100842.59;;;7.25;100.00
29839;BME280;18669;53.356;-1.464;2023-01-30T00:34:04;100844.34;;;7.24;100.00
29839;BME280;18669;53.356;-1.464;2023-01-30T00:36:30;100844.34;;;7.26;100.00
29839;BME280;18669;53.356;-1.464;2023-01-30T00:38:56;100855.69;;;7.29;100.00
29839;BME280;18669;53.356;-1.464;2023-01-30T00:41:24;100840.88;;;7.28;100.00
29839;BME280;18669;53.356;-1.464;2023-01-30T00:44:10;100852.16;;;7.35;100.00
29839;BME280;18669;53.356;-1.464;2023-01-30T00:46:55;100846.06;;;7.41;100.00
29839;BME280;18669;53.356;-1.464;2023-01-30T00:49:35;100845.13;;;7.56;100.00
29839;BME280;18669;53.356;-1.464;2023-01-30T00:52:01;100853.84;;;7.50;100.00
29839;BME280;18669;53.356;-1.464;2023-01-30T00:54:27;100859.09;;;7.50;100.00
29839;BME280;18669;53.356;-1.464;2023-01-30T00:56:53;100855.63;;;7.50;100.00
29839;BME280;18669;53.356;-1.464;2023-01-30T00:59:19;100851.25;;;7.45;100.00
29839;BME280;18669;53.356;-1.464;2023-01-30T01:01:46;100855.63;;;7.42;100.00
29839;BME280;18669;53.356;-1.464;2023-01-30T01:04:12;100853.91;;;7.33;100.00
29839;BME280;18669;53.356;-1.464;2023-01-30T01:06:38;100860.81;;;7.51;100.00
29839;BME280;18669;53.356;-1.464;2023-01-30T01:09:05;100867.00;;;7.41;100.00
29839;BME280;18669;53.356;-1.464;2023-01-30T01:11:31;100866.13;;;7.39;100.00
29839;BME280;18669;53.356;-1.464;2023-01-30T01:13:58;100877.38;;;7.63;100.00
29839;BME280;18669;53.356;-1.464;2023-01-30T01:16:25;100874.81;;;7.44;100.00
29839;BME280;18669;53.356;-1.464;2023-01-30T01:18:51;100875.72;;;7.38;100.00
29839;BME280;18669;53.356;-1.464;2023-01-30T01:21:18;100873.94;;;7.53;100.00
29839;BME280;18669;53.356;-1.464;2023-01-30T01:23:57;100873.91;;;7.59;100.00
29839;BME280;18669;53.356;-1.464;2023-01-30T01:26:24;100876.53;;;7.53;100.00
29839;BME280;18669;53.356;-1.464;2023-01-30T01:28:55;100863.47;;;7.46;100.00
29839;BME280;18669;53.356;-1.464;2023-01-30T01:31:22;100869.66;;;7.25;100.00
29839;BME280;18669;53.356;-1.464;2023-01-30T01:33:49;100860.06;;;7.18;100.00
29839;BME280;18669;53.356;-1.464;2023-01-30T01:36:15;100867.94;;;7.10;100.00
29839;BME280;18669;53.356;-1.464;2023-01-30T01:38:41;100862.72;;;7.04;100.00
29839;BME280;18669;53.356;-1.464;2023-01-30T01:41:10;100857.50;;;7.07;100.00
29839;BME280;18669;53.356;-1.464;2023-01-30T01:46:34;100875.84;;;6.99;100.00
29839;BME280;18669;53.356;-1.464;2023-01-30T01:49:07;100870.59;;;6.95;100.00
29839;BME280;18669;53.356;-1.464;2023-01-30T01:51:41;100860.16;;;6.90;100.00
29839;BME280;18669;53.356;-1.464;2023-01-30T01:54:12;100868.00;;;6.85;100.00
29839;BME280;18669;53.356;-1.464;2023-01-30T01:56:45;100888.91;;;6.81;100.00
29839;BME280;18669;53.356;-1.464;2023-01-30T01:59:30;100888.94;;;6.82;100.00
29839;BME280;18669;53.356;-1.464;2023-01-30T02:02:06;100888.94;;;6.79;100.00
29839;BME280;18669;53.356;-1.464;2023-01-30T02:04:38;100886.31;;;6.82;100.00
29839;BME280;18669;53.356;-1.464;2023-01-30T02:07:28;100895.03;;;6.78;100.00
29839;BME280;18669;53.356;-1.464;2023-01-30T02:09:57;100883.69;;;6.71;100.00
29839;BME280;18669;53.356;-1.464;2023-01-30T02:12:24;100886.31;;;6.73;100.00
29839;BME280;18669;53.356;-1.464;2023-01-30T02:14:51;100881.94;;;6.77;100.00
29839;BME280;18669;53.356;-1.464;2023-01-30T02:17:19;100898.53;;;6.69;100.00
29839;BME280;18669;53.356;-1.464;2023-01-30T02:20:28;100882.81;;;6.82;100.00
29839;BME280;18669;53.356;-1.464;2023-01-30T02:34:34;100880.22;;;6.86;100.00
29839;BME280;18669;53.356;-1.464;2023-01-30T02:37:44;100888.91;;;6.93;100.00
29839;BME280;18669;53.356;-1.464;2023-01-30T02:45:46;100894.16;;;6.85;100.00
29839;BME280;18669;53.356;-1.464;2023-01-30T02:48:30;100915.94;;;6.78;100.00
29839;BME280;18669;53.356;-1.464;2023-01-30T02:51:04;100919.41;;;6.72;100.00
29839;BME280;18669;53.356;-1.464;2023-01-30T02:53:33;100917.69;;;6.71;100.00
29839;BME280;18669;53.356;-1.464;2023-01-30T02:55:59;100918.56;;;6.84;100.00
29839;BME280;18669;53.356;-1.464;2023-01-30T02:58:31;100936.88;;;6.98;100.00
29839;BME280;18669;53.356;-1.464;2023-01-30T03:06:40;100934.22;;;7.14;100.00
29839;BME280;18669;53.356;-1.464;2023-01-30T03:10:06;100926.38;;;7.12;100.00
29839;BME280;18669;53.356;-1.464;2023-01-30T03:12:17;100929.84;;;7.13;100.00
29839;BME280;18669;53.356;-1.464;2023-01-30T03:14:54;100922.88;;;7.09;100.00
29839;BME280;18669;53.356;-1.464;2023-01-30T03:17:25;100916.78;;;7.10;100.00
29839;BME280;18669;53.356;-1.464;2023-01-30T03:19:54;100920.25;;;7.09;100.00
29839;BME280;18669;53.356;-1.464;2023-01-30T03:22:21;100922.91;;;6.93;100.00
29839;BME280;18669;53.356;-1.464;2023-01-30T03:24:49;100921.16;;;6.89;100.00
29839;BME280;18669;53.356;-1.464;2023-01-30T03:27:17;100924.66;;;6.88;100.00
29839;BME280;18669;53.356;-1.464;2023-01-30T03:29:44;100930.78;;;6.82;100.00
29839;BME280;18669;53.356;-1.464;2023-01-30T03:32:10;100939.47;;;7.03;100.00
29839;BME280;18669;53.356;-1.464;2023-01-30T03:34:36;100942.09;;;6.94;100.00
29839;BME280;18669;53.356;-1.464;2023-01-30T03:37:03;100949.06;;;7.04;100.00
29839;BME280;18669;53.356;-1.464;2023-01-30T03:39:29;100939.47;;;6.95;100.00
29839;BME280;18669;53.356;-1.464;2023-01-30T03:41:57;100946.44;;;6.95;100.00
29839;BME280;18669;53.356;-1.464;2023-01-30T03:44:23;100953.41;;;6.99;100.00
29839;BME280;18669;53.356;-1.464;2023-01-30T03:46:49;100938.59;;;7.07;100.00
29839;BME280;18669;53.356;-1.464;2023-01-30T03:49:15;100950.78;;;7.10;100.00
29839;BME280;18669;53.356;-1.464;2023-01-30T03:51:41;100951.69;;;7.10;100.00
29839;BME280;18669;53.356;-1.464;2023-01-30T03:54:08;100955.16;;;7.17;100.00
29839;BME280;18669;53.356;-1.464;2023-01-30T03:56:38;100961.25;;;7.21;100.00
29839;BME280;18669;53.356;-1.464;2023-01-30T03:59:07;100960.38;;;7.23;100.00
29839;BME280;18669;53.356;-1.464;2023-01-30T04:01:41;100963.84;;;7.30;100.00
29839;BME280;18669;53.356;-1.464;2023-01-30T04:04:12;100961.25;;;7.25;100.00
29839;BME280;18669;53.356;-1.464;2023-01-30T04:06:48;100960.38;;;7.26;100.00
29839;BME280;18669;53.356;-1.464;2023-01-30T04:09:14;100967.34;;;7.24;100.00
29839;BME280;18669;53.356;-1.464;2023-01-30T04:11:41;100964.72;;;7.26;100.00
29839;BME280;18669;53.356;-1.464;2023-01-30T04:14:07;100982.19;;;7.28;100.00
29839;BME280;18669;53.356;-1.464;2023-01-30T04:16:37;100971.72;;;7.28;100.00
29839;BME280;18669;53.356;-1.464;2023-01-30T04:19:13;100990.88;;;7.32;100.00
29839;BME280;18669;53.356;-1.464;2023-01-30T04:21:39;100983.03;;;7.32;100.00
29839;BME280;18669;53.356;-1.464;2023-01-30T04:24:06;100977.81;;;7.37;100.00
29839;BME280;18669;53.356;-1.464;2023-01-30T04:26:39;100988.28;;;7.38;100.00
29839;BME280;18669;53.356;-1.464;2023-01-30T04:29:15;100989.13;;;7.37;100.00
29839;BME280;18669;53.356;-1.464;2023-01-30T04:31:42;101003.09;;;7.36;100.00
29839;BME280;18669;53.356;-1.464;2023-01-30T04:34:08;100997.88;;;7.33;100.00
29839;BME280;18669;53.356;-1.464;2023-01-30T04:36:34;100991.78;;;7.32;100.00
29839;BME280;18669;53.356;-1.464;2023-01-30T04:39:02;100990.03;;;7.41;100.00
29839;BME280;18669;53.356;-1.464;2023-01-30T04:41:28;100991.78;;;7.32;100.00
29839;BME280;18669;53.356;-1.464;2023-01-30T04:43:54;100987.41;;;7.30;100.00
29839;BME280;18669;53.356;-1.464;2023-01-30T04:46:20;100993.50;;;7.47;100.00
29839;BME280;18669;53.356;-1.464;2023-01-30T04:48:46;101000.50;;;7.31;100.00
29839;BME280;18669;53.356;-1.464;2023-01-30T04:51:12;100995.28;;;7.35;100.00
29839;BME280;18669;53.356;-1.464;2023-01-30T04:53:39;101005.75;;;7.35;100.00
29839;BME280;18669;53.356;-1.464;2023-01-30T04:56:05;101007.47;;;7.39;100.00
29839;BME280;18669;53.356;-1.464;2023-01-30T04:58:31;101000.47;;;7.39;100.00
29839;BME280;18669;53.356;-1.464;2023-01-30T05:01:29;101000.47;;;7.55;100.00
29839;BME280;18669;53.356;-1.464;2023-01-30T05:03:56;101004.00;;;7.37;100.00
29839;BME280;18669;53.356;-1.464;2023-01-30T05:06:22;101005.69;;;7.50;100.00
29839;BME280;18669;53.356;-1.464;2023-01-30T05:08:49;100994.41;;;7.39;100.00
29839;BME280;18669;53.356;-1.464;2023-01-30T05:11:19;101010.97;;;7.33;100.00
29839;BME280;18669;53.356;-1.464;2023-01-30T05:13:46;101011.84;;;7.30;100.00
29839;BME280;18669;53.356;-1.464;2023-01-30T05:16:13;101001.34;;;7.32;100.00
29839;BME280;18669;53.356;-1.464;2023-01-30T05:18:40;101003.13;;;7.31;100.00
29839;BME280;18669;53.356;-1.464;2023-01-30T05:21:17;101010.97;;;7.39;100.00
29839;BME280;18669;53.356;-1.464;2023-01-30T05:23:44;101003.13;;;7.22;100.00
29839;BME280;18669;53.356;-1.464;2023-01-30T05:26:11;101017.06;;;7.29;100.00
29839;BME280;18669;53.356;-1.464;2023-01-30T05:28:38;101021.44;;;7.31;100.00
29839;BME280;18669;53.356;-1.464;2023-01-30T05:31:06;101031.03;;;7.37;100.00
29839;BME280;18669;53.356;-1.464;2023-01-30T05:33:33;101034.53;;;7.31;100.00
29839;BME280;18669;53.356;-1.464;2023-01-30T05:35:59;101041.50;;;7.32;100.00
29839;BME280;18669;53.356;-1.464;2023-01-30T05:38:25;101052.84;;;7.33;100.00
29839;BME280;18669;53.356;-1.464;2023-01-30T05:41:05;101066.78;;;7.49;100.00
29839;BME280;18669;53.356;-1.464;2023-01-30T05:43:33;101064.19;;;7.38;100.00
29839;BME280;18669;53.356;-1.464;2023-01-30T05:46:01;101085.13;;;7.38;100.00
29839;BME280;18669;53.356;-1.464;2023-01-30T05:48:29;101079.91;;;7.37;100.00
29839;BME280;18669;53.356;-1.464;2023-01-30T05:50:56;101079.00;;;7.50;100.00
29839;BME280;18669;53.356;-1.464;2023-01-30T05:53:26;101074.63;;;7.55;100.00
29839;BME280;18669;53.356;-1.464;2023-01-30T05:55:57;101086.00;;;7.57;100.00
29839;BME280;18669;53.356;-1.464;2023-01-30T05:58:24;101094.72;;;7.49;100.00
29839;BME280;18669;53.356;-1.464;2023-01-30T06:00:51;101079.88;;;7.46;100.00
29839;BME280;18669;53.356;-1.464;2023-01-30T06:03:19;101076.41;;;7.52;100.00
29839;BME280;18669;53.356;-1.464;2023-01-30T06:05:44;101075.50;;;7.65;100.00
29839;BME280;18669;53.356;-1.464;2023-01-30T06:08:11;101084.25;;;7.49;100.00
29839;BME280;18669;53.356;-1.464;2023-01-30T06:10:37;101076.38;;;7.63;100.00
29839;BME280;18669;53.356;-1.464;2023-01-30T06:13:03;101085.13;;;7.41;100.00
29839;BME280;18669;53.356;-1.464;2023-01-30T06:15:29;101087.72;;;7.46;100.00
29839;BME280;18669;53.356;-1.464;2023-01-30T06:17:55;101091.22;;;7.34;100.00
29839;BME280;18669;53.356;-1.464;2023-01-30T06:20:21;101087.75;;;7.44;100.00
29839;BME280;18669;53.356;-1.464;2023-01-30T06:22:48;101080.75;;;7.46;100.00
29839;BME280;18669;53.356;-1.464;2023-01-30T06:25:14;101069.41;;;7.44;100.00
29839;BME280;18669;53.356;-1.464;2023-01-30T06:27:40;101056.34;;;7.40;100.00
29839;BME280;18669;53.356;-1.464;2023-01-30T06:30:08;101057.22;;;7.36;100.00
29839;BME280;18669;53.356;-1.464;2023-01-30T06:32:34;101060.69;;;7.22;100.00
29839;BME280;18669;53.356;-1.464;2023-01-30T06:35:00;101071.16;;;7.13;100.00
29839;BME280;18669;53.356;-1.464;2023-01-30T06:37:26;101072.03;;;7.10;100.00
29839;BME280;18669;53.356;-1.464;2023-01-30T06:39:53;101072.88;;;7.14;100.00
29839;BME280;18669;53.356;-1.464;2023-01-30T06:42:19;101069.41;;;6.99;100.00
29839;BME280;18669;53.356;-1.464;2023-01-30T06:44:45;101068.53;;;6.94;100.00
29839;BME280;18669;53.356;-1.464;2023-01-30T06:47:11;101059.78;;;6.97;100.00
29839;BME280;18669;53.356;-1.464;2023-01-30T06:49:37;101052.84;;;6.97;100.00
29839;BME280;18669;53.356;-1.464;2023-01-30T06:52:03;101060.69;;;6.97;100.00
29839;BME280;18669;53.356;-1.464;2023-01-30T06:54:29;101066.81;;;7.16;100.00
29839;BME280;18669;53.356;-1.464;2023-01-30T06:56:56;101067.66;;;6.98;100.00
29839;BME280;18669;53.356;-1.464;2023-01-30T06:59:22;101064.16;;;6.93;100.00
29839;BME280;18669;53.356;-1.464;2023-01-30T07:01:48;101052.81;;;6.86;100.00
29839;BME280;18669;53.356;-1.464;2023-01-30T07:04:14;101060.66;;;6.88;100.00
29839;BME280;18669;53.356;-1.464;2023-01-30T07:06:40;101055.44;;;6.88;100.00
29839;BME280;18669;53.356;-1.464;2023-01-30T07:09:06;101061.56;;;7.03;100.00
29839;BME280;18669;53.356;-1.464;2023-01-30T07:11:32;101058.03;;;6.88;100.00
29839;BME280;18669;53.356;-1.464;2023-01-30T07:13:58;101067.63;;;6.80;100.00
29839;BME280;18669;53.356;-1.464;2023-01-30T07:16:24;101073.72;;;6.77;100.00
29839;BME280;18669;53.356;-1.464;2023-01-30T07:18:57;101081.56;;;6.77;100.00
29839;BME280;18669;53.356;-1.464;2023-01-30T07:21:26;101078.06;;;6.70;100.00
29839;BME280;18669;53.356;-1.464;2023-01-30T07:23:53;101091.13;;;6.72;100.00
29839;BME280;18669;53.356;-1.464;2023-01-30T07:26:19;101083.28;;;6.67;100.00
29839;BME280;18669;53.356;-1.464;2023-01-30T07:28:45;101083.28;;;6.66;100.00
29839;BME280;18669;53.356;-1.464;2023-01-30T07:31:11;101097.22;;;6.66;100.00
29839;BME280;18669;53.356;-1.464;2023-01-30T07:33:37;101121.66;;;6.68;100.00
29839;BME280;18669;53.356;-1.464;2023-01-30T07:36:04;101125.13;;;6.69;100.00
29839;BME280;18669;53.356;-1.464;2023-01-30T07:38:30;101133.88;;;6.80;100.00
29839;BME280;18669;53.356;-1.464;2023-01-30T07:40:56;101119.03;;;6.73;100.00
29839;BME280;18669;53.356;-1.464;2023-01-30T07:43:23;101108.56;;;6.73;100.00
29839;BME280;18669;53.356;-1.464;2023-01-30T07:45:49;101113.75;;;6.64;100.00
29839;BME280;18669;53.356;-1.464;2023-01-30T07:48:17;101126.84;;;6.71;100.00
29839;BME280;18669;53.356;-1.464;2023-01-30T07:50:44;101115.53;;;6.71;100.00
29839;BME280;18669;53.356;-1.464;2023-01-30T07:53:13;101107.69;;;6.71;100.00
29839;BME280;18669;53.356;-1.464;2023-01-30T07:55:40;101109.44;;;6.67;100.00
29839;BME280;18669;53.356;-1.464;2023-01-30T07:58:06;101092.00;;;6.76;100.00
29839;BME280;18669;53.356;-1.464;2023-01-30T08:00:32;101087.59;;;6.61;100.00
29839;BME280;18669;53.356;-1.464;2023-01-30T08:02:59;101080.66;;;6.61;100.00
29839;BME280;18669;53.356;-1.464;2023-01-30T08:05:25;101077.13;;;6.57;100.00
29839;BME280;18669;53.356;-1.464;2023-01-30T08:07:54;101082.38;;;6.61;100.00
29839;BME280;18669;53.356;-1.464;2023-01-30T08:10:20;101092.84;;;6.56;100.00
29839;BME280;18669;53.356;-1.464;2023-01-30T08:12:49;101085.00;;;6.61;100.00
29839;BME280;18669;53.356;-1.464;2023-01-30T08:15:16;101090.22;;;6.61;100.00
29839;BME280;18669;53.356;-1.464;2023-01-30T08:17:42;101096.31;;;6.60;100.00
29839;BME280;18669;53.356;-1.464;2023-01-30T08:20:09;101111.19;;;6.65;100.00
29839;BME280;18669;53.356;-1.464;2023-01-30T08:22:35;101122.50;;;6.67;100.00
29839;BME280;18669;53.356;-1.464;2023-01-30T08:25:01;101134.69;;;6.64;100.00
29839;BME280;18669;53.356;-1.464;2023-01-30T08:27:27;101132.97;;;6.67;100.00
29839;BME280;18669;53.356;-1.464;2023-01-30T08:29:54;101148.66;;;6.67;100.00
29839;BME280;18669;53.356;-1.464;2023-01-30T08:32:20;101161.75;;;6.70;100.00
29839;BME280;18669;53.356;-1.464;2023-01-30T08:34:46;101161.75;;;6.75;100.00
29839;BME280;18669;53.356;-1.464;2023-01-30T08:37:12;101168.69;;;6.71;100.00
29839;BME280;18669;53.356;-1.464;2023-01-30T08:39:38;101178.31;;;6.74;100.00
29839;BME280;18669;53.356;-1.464;2023-01-30T08:42:04;101180.94;;;6.74;100.00
29839;BME280;18669;53.356;-1.464;2023-01-30T08:44:30;101192.28;;;6.76;100.00
29839;BME280;18669;53.356;-1.464;2023-01-30T08:46:56;101197.56;;;6.89;100.00
29839;BME280;18669;53.356;-1.464;2023-01-30T08:49:22;101203.66;;;6.92;100.00
29839;BME280;18669;53.356;-1.464;2023-01-30T08:51:48;101199.28;;;6.93;100.00
29839;BME280;18669;53.356;-1.464;2023-01-30T08:54:15;101190.59;;;6.92;100.00
29839;BME280;18669;53.356;-1.464;2023-01-30T08:56:41;101177.47;;;6.86;100.00
29839;BME280;18669;53.356;-1.464;2023-01-30T08:59:07;101196.69;;;6.86;100.00
29839;BME280;18669;53.356;-1.464;2023-01-30T09:01:33;101198.44;;;6.92;100.00
29839;BME280;18669;53.356;-1.464;2023-01-30T09:03:59;101183.59;;;6.96;100.00
29839;BME280;18669;53.356;-1.464;2023-01-30T09:06:25;101190.59;;;6.95;100.00
29839;BME280;18669;53.356;-1.464;2023-01-30T09:08:51;101190.59;;;7.00;100.00
29839;BME280;18669;53.356;-1.464;2023-01-30T09:11:17;101193.25;;;7.01;100.00
29839;BME280;18669;53.356;-1.464;2023-01-30T09:13:44;101188.88;;;7.02;100.00
29839;BME280;18669;53.356;-1.464;2023-01-30T09:16:11;101192.38;;;7.07;100.00
29839;BME280;18669;53.356;-1.464;2023-01-30T09:18:40;101191.50;;;7.10;100.00
29839;BME280;18669;53.356;-1.464;2023-01-30T09:21:12;101215.03;;;7.05;100.00
29839;BME280;18669;53.356;-1.464;2023-01-30T09:23:39;101239.47;;;7.03;100.00
29839;BME280;18669;53.356;-1.464;2023-01-30T09:26:05;101238.66;;;7.24;100.00
29839;BME280;18669;53.356;-1.464;2023-01-30T09:28:32;101237.75;;;7.09;100.00
29839;BME280;18669;53.356;-1.464;2023-01-30T09:31:02;101230.78;;;7.11;100.00
29839;BME280;18669;53.356;-1.464;2023-01-30T09:33:29;101231.63;;;7.15;100.00
29839;BME280;18669;53.356;-1.464;2023-01-30T09:35:55;101222.94;;;7.19;100.00
29839;BME280;18669;53.356;-1.464;2023-01-30T09:38:21;101222.97;;;7.28;100.00
29839;BME280;18669;53.356;-1.464;2023-01-30T09:43:37;101231.78;;;7.89;100.00
29839;BME280;18669;53.356;-1.464;2023-01-30T09:49:07;101218.59;;;8.61;100.00
29839;BME280;18669;53.356;-1.464;2023-01-30T09:52:11;101200.28;;;8.48;100.00
29839;BME280;18669;53.356;-1.464;2023-01-30T09:54:43;101209.88;;;8.32;100.00
29839;BME280;18669;53.356;-1.464;2023-01-30T09:57:21;101213.38;;;8.47;100.00
29839;BME280;18669;53.356;-1.464;2023-01-30T10:02:34;101242.22;;;8.61;100.00
29839;BME280;18669;53.356;-1.464;2023-01-30T10:05:02;101248.31;;;8.60;100.00
29839;BME280;18669;53.356;-1.464;2023-01-30T10:16:18;101259.28;;;9.58;100.00
29839;BME280;18669;53.356;-1.464;2023-01-30T10:24:48;101273.09;;;10.86;84.99
29839;BME280;18669;53.356;-1.464;2023-01-30T10:27:24;101285.03;;;10.29;86.59
29839;BME280;18669;53.356;-1.464;2023-01-30T10:29:54;101299.31;;;9.99;90.63
29839;BME280;18669;53.356;-1.464;2023-01-30T10:32:41;101303.94;;;9.58;96.05
29839;BME280;18669;53.356;-1.464;2023-01-30T10:35:54;101313.69;;;9.36;99.79
29839;BME280;18669;53.356;-1.464;2023-01-30T10:40:40;101322.59;;;8.94;100.00
29839;BME280;18669;53.356;-1.464;2023-01-30T10:43:19;101314.66;;;9.04;100.00
29839;BME280;18669;53.356;-1.464;2023-01-30T10:51:45;101317.94;;;9.65;100.00
29839;BME280;18669;53.356;-1.464;2023-01-30T10:54:34;101334.53;;;9.70;96.95
29839;BME280;18669;53.356;-1.464;2023-01-30T11:00:00;101355.69;;;9.44;100.00
29839;BME280;18669;53.356;-1.464;2023-01-30T11:03:03;101356.63;;;9.25;100.00
29839;BME280;18669;53.356;-1.464;2023-01-30T11:05:49;101357.50;;;9.21;100.00
29839;BME280;18669;53.356;-1.464;2023-01-30T11:08:22;101354.91;;;9.10;100.00
29839;BME280;18669;53.356;-1.464;2023-01-30T11:10:50;101370.72;;;8.79;100.00
29839;BME280;18669;53.356;-1.464;2023-01-30T11:13:30;101357.59;;;8.81;100.00
29839;BME280;18669;53.356;-1.464;2023-01-30T11:16:04;101353.19;;;8.85;100.00
29839;BME280;18669;53.356;-1.464;2023-01-30T11:18:32;101356.72;;;8.94;100.00
29839;BME280;18669;53.356;-1.464;2023-01-30T11:21:12;101361.91;;;9.08;100.00
29839;BME280;18669;53.356;-1.464;2023-01-30T11:23:41;101345.28;;;9.05;100.00
29839;BME280;18669;53.356;-1.464;2023-01-30T11:26:34;101331.22;;;9.29;100.00
29839;BME280;18669;53.356;-1.464;2023-01-30T11:29:24;101337.34;;;9.25;100.00
29839;BME280;18669;53.356;-1.464;2023-01-30T11:31:51;101333.00;;;9.25;100.00
29839;BME280;18669;53.356;-1.464;2023-01-30T11:34:22;101333.78;;;9.45;100.00
29839;BME280;18669;53.356;-1.464;2023-01-30T11:36:49;101338.16;;;9.49;100.00
29839;BME280;18669;53.356;-1.464;2023-01-30T11:44:25;101341.84;;;10.55;95.31
29839;BME280;18669;53.356;-1.464;2023-01-30T11:46:52;101341.84;;;11.35;83.96
29839;BME280;18669;53.356;-1.464;2023-01-30T11:49:19;101340.41;;;12.39;73.73
29839;BME280;18669;53.356;-1.464;2023-01-30T11:51:51;101342.66;;;13.09;68.26
29839;BME280;18669;53.356;-1.464;2023-01-30T11:54:21;101349.22;;;13.34;64.04
29839;BME280;18669;53.356;-1.464;2023-01-30T11:56:53;101344.22;;;14.39;61.68
29839;BME280;18669;53.356;-1.464;2023-01-30T12:01:49;101348.78;;;15.02;55.45
29839;BME280;18669;53.356;-1.464;2023-01-30T12:04:16;101346.97;;;15.95;53.25
29839;BME280;18669;53.356;-1.464;2023-01-30T12:06:43;101344.09;;;16.30;50.91
29839;BME280;18669;53.356;-1.464;2023-01-30T12:09:36;101351.50;;;15.92;51.54
29839;BME280;18669;53.356;-1.464;2023-01-30T12:26:17;101378.59;;;18.27;44.73
29839;BME280;18669;53.356;-1.464;2023-01-30T12:29:01;101377.47;;;17.88;44.54
29839;BME280;18669;53.356;-1.464;2023-01-30T12:31:31;101376.59;;;18.11;43.92
29839;BME280;18669;53.356;-1.464;2023-01-30T12:34:02;101370.94;;;18.62;43.89
29839;BME280;18669;53.356;-1.464;2023-01-30T12:39:58;101373.81;;;18.78;41.82
29839;BME280;18669;53.356;-1.464;2023-01-30T12:42:28;101377.91;;;18.22;42.58
29839;BME280;18669;53.356;-1.464;2023-01-30T12:58:34;101376.25;;;18.62;41.13
29839;BME280;18669;53.356;-1.464;2023-01-30T13:01:23;101384.09;;;19.08;40.39
29839;BME280;18669;53.356;-1.464;2023-01-30T13:04:32;101380.13;;;18.98;40.09
29839;BME280;18669;53.356;-1.464;2023-01-30T13:07:26;101383.28;;;18.85;40.02
29839;BME280;18669;53.356;-1.464;2023-01-30T13:10:07;101383.31;;;18.20;40.79
29839;BME280;18669;53.356;-1.464;2023-01-30T13:15:24;101378.44;;;17.14;42.84
29839;BME280;18669;53.356;-1.464;2023-01-30T13:20:51;101365.50;;;15.67;45.82
29839;BME280;18669;53.356;-1.464;2023-01-30T13:23:30;101353.22;;;14.67;48.27
29839;BME280;18669;53.356;-1.464;2023-01-30T13:26:09;101357.59;;;13.97;51.20
29839;BME280;18669;53.356;-1.464;2023-01-30T13:28:43;101363.47;;;13.26;53.95
29839;BME280;18669;53.356;-1.464;2023-01-30T13:31:13;101354.00;;;12.66;56.95
29839;BME280;18669;53.356;-1.464;2023-01-30T13:33:43;101369.44;;;12.37;58.90
29839;BME280;18669;53.356;-1.464;2023-01-30T13:36:17;101359.31;;;12.09;60.74
29839;BME280;18669;53.356;-1.464;2023-01-30T13:41:18;101365.13;;;11.69;64.72
29839;BME280;18669;53.356;-1.464;2023-01-30T13:43:51;101372.06;;;11.76;64.88
29839;BME280;18669;53.356;-1.464;2023-01-30T13:46:24;101377.38;;;11.75;65.72
29839;BME280;18669;53.356;-1.464;2023-01-30T13:54:42;101377.91;;;11.31;68.65
29839;BME280;18669;53.356;-1.464;2023-01-30T13:57:27;101383.19;;;11.31;70.84
29839;BME280;18669;53.356;-1.464;2023-01-30T14:02:34;101387.16;;;10.88;71.68
29839;BME280;18669;53.356;-1.464;2023-01-30T14:05:00;101387.09;;;10.95;72.67
29839;BME280;18669;53.356;-1.464;2023-01-30T14:07:39;101384.50;;;10.90;73.50
29839;BME280;18669;53.356;-1.464;2023-01-30T14:12:53;101382.00;;;10.73;73.81
29839;BME280;18669;53.356;-1.464;2023-01-30T14:15:23;101383.03;;;10.58;75.37
29839;BME280;18669;53.356;-1.464;2023-01-30T14:20:24;101392.72;;;10.54;76.16
29839;BME280;18669;53.356;-1.464;2023-01-30T14:22:56;101397.03;;;10.62;77.41
29839;BME280;18669;53.356;-1.464;2023-01-30T14:25:32;101387.44;;;10.57;76.60
29839;BME280;18669;53.356;-1.464;2023-01-30T14:30:48;101386.50;;;10.62;76.40
29839;BME280;18669;53.356;-1.464;2023-01-30T14:35:48;101398.91;;;10.47;76.19
29839;BME280;18669;53.356;-1.464;2023-01-30T14:38:34;101395.50;;;10.26;76.58
29839;BME280;18669;53.356;-1.464;2023-01-30T14:51:26;101402.59;;;10.15;79.44
29839;BME280;18669;53.356;-1.464;2023-01-30T15:07:18;101415.88;;;9.92;79.92
29839;BME280;18669;53.356;-1.464;2023-01-30T15:09:57;101421.16;;;9.89;79.60
29839;BME280;18669;53.356;-1.464;2023-01-30T15:28:58;101440.53;;;9.61;86.25
29839;BME280;18669;53.356;-1.464;2023-01-30T15:31:27;101448.44;;;9.50;88.22
29839;BME280;18669;53.356;-1.464;2023-01-30T15:33:54;101451.03;;;9.67;87.36
29839;BME280;18669;53.356;-1.464;2023-01-30T15:36:30;101457.13;;;9.76;85.73
29839;BME280;18669;53.356;-1.464;2023-01-30T15:39:02;101469.31;;;9.97;85.49
29839;BME280;18669;53.356;-1.464;2023-01-30T15:41:31;101471.00;;;10.12;85.04
29839;BME280;18669;53.356;-1.464;2023-01-30T15:46:54;101481.44;;;10.26;82.15